Time;durP1;ratioP1;P1;durP2;ratioP2;P2;SDS_P1;SDS_P2;PMS_P1;PMS_P2;Temp;Humidity;BMP_temperature;BMP_pressure;BME280_temperature;BME280_humidity;BME280_pressure;Samples;Min_cycle;Max_cycle;Signal;HPM_P1;HPM_P2
2022/11/17 00:01:17;;;;;;;14.47;13.37;;;10.30;99.90;;;;;;5118141;27;20471;-70
2022/11/17 00:03:45;;;;;;;15.97;14.60;;;10.40;99.90;;;;;;5115562;27;20460;-69
2022/11/17 00:06:12;;;;;;;15.83;14.70;;;10.40;99.90;;;;;;5119630;27;20864;-68
2022/11/17 00:08:40;;;;;;;16.37;15.03;;;10.40;99.90;;;;;;5120368;27;20804;-68
2022/11/17 00:11:08;;;;;;;15.47;14.17;;;10.40;99.90;;;;;;5116180;27;20465;-69
2022/11/17 00:16:21;;;;;;;16.60;15.30;;;10.40;99.90;;;;;;5118766;27;20984;-68
2022/11/17 00:21:34;;;;;;;15.03;13.77;;;10.30;99.90;;;;;;5113893;27;20459;-68
2022/11/17 00:24:02;;;;;;;13.10;12.27;;;10.30;99.90;;;;;;5122437;27;20460;-69
2022/11/17 00:26:31;;;;;;;13.53;12.50;;;10.30;99.90;;;;;;5119965;27;20495;-68
2022/11/17 00:28:59;;;;;;;14.87;13.30;;;10.30;99.90;;;;;;5118873;27;20475;-68
2022/11/17 00:34:15;;;;;;;14.87;13.53;;;10.30;99.90;;;;;;5125846;27;20443;-69
2022/11/17 00:36:44;;;;;;;13.10;12.10;;;10.30;99.90;;;;;;5115604;27;20951;-68
2022/11/17 00:39:12;;;;;;;14.23;13.00;;;10.30;99.90;;;;;;5121656;27;20456;-68
2022/11/17 00:41:40;;;;;;;13.77;12.67;;;10.20;99.90;;;;;;5120021;27;20473;-69
2022/11/17 00:44:07;;;;;;;13.40;12.40;;;10.30;99.90;;;;;;5121503;27;20465;-69
2022/11/17 00:46:37;;;;;;;13.13;12.27;;;10.20;99.90;;;;;;5121413;27;20492;-68
2022/11/17 00:49:04;;;;;;;13.00;12.03;;;10.20;99.90;;;;;;5119933;27;20457;-68
2022/11/17 00:51:32;;;;;;;12.87;12.07;;;10.20;99.90;;;;;;5118131;27;20805;-68
2022/11/17 00:54:00;;;;;;;12.93;12.17;;;10.30;99.90;;;;;;5116137;27;20456;-67
2022/11/17 00:56:27;;;;;;;12.83;11.93;;;10.20;99.90;;;;;;5120544;27;20449;-70
2022/11/17 00:58:54;;;;;;;13.00;12.10;;;10.20;99.90;;;;;;5121035;27;20543;-68
2022/11/17 01:01:21;;;;;;;12.50;11.33;;;10.20;99.90;;;;;;5121326;27;20725;-68
2022/11/17 01:03:48;;;;;;;11.97;11.27;;;10.20;99.90;;;;;;5117692;27;20807;-69
2022/11/17 01:06:17;;;;;;;11.67;10.50;;;10.20;99.90;;;;;;5119872;27;20824;-70
2022/11/17 01:08:46;;;;;;;10.90;10.30;;;10.20;99.90;;;;;;5117972;27;20759;-69
2022/11/17 01:11:15;;;;;;;11.37;10.40;;;10.20;99.90;;;;;;5121281;27;20546;-70
2022/11/17 01:13:42;;;;;;;12.03;11.00;;;10.30;99.90;;;;;;5119526;27;20452;-71
2022/11/17 01:16:11;;;;;;;12.33;11.53;;;10.30;99.90;;;;;;5117467;27;20460;-70
2022/11/17 01:18:38;;;;;;;11.47;10.70;;;10.30;99.90;;;;;;5120890;27;20814;-69
2022/11/17 01:21:09;;;;;;;12.40;11.40;;;10.30;99.90;;;;;;5117228;27;20834;-70
2022/11/17 01:23:37;;;;;;;12.10;11.10;;;10.30;99.90;;;;;;5122263;27;20840;-70
2022/11/17 01:26:07;;;;;;;10.90;10.17;;;10.20;99.90;;;;;;5119221;27;20538;-70
2022/11/17 01:28:35;;;;;;;11.87;10.77;;;10.30;99.90;;;;;;5115457;27;20467;-70
2022/11/17 01:31:04;;;;;;;11.40;10.80;;;10.30;99.90;;;;;;5121907;27;20976;-70
2022/11/17 01:33:31;;;;;;;11.67;10.87;;;10.30;99.90;;;;;;5119218;27;20464;-69
2022/11/17 01:36:01;;;;;;;10.87;10.13;;;10.30;99.90;;;;;;5114770;27;20891;-69
2022/11/17 01:38:28;;;;;;;11.47;10.80;;;10.20;99.90;;;;;;5119607;27;20551;-69
2022/11/17 01:40:57;;;;;;;12.03;11.20;;;10.30;99.90;;;;;;5119317;27;20525;-71
2022/11/17 01:43:41;;;;;;;11.47;10.77;;;10.30;99.90;;;;;;5119947;27;20544;-69
2022/11/17 01:46:19;;;;;;;12.00;11.07;;;10.30;99.90;;;;;;5112184;27;20517;-69
2022/11/17 01:48:49;;;;;;;14.47;11.10;;;10.30;99.90;;;;;;5108761;27;20466;-69
2022/11/17 01:51:16;;;;;;;12.70;11.70;;;10.20;99.90;;;;;;5116605;27;20465;-69
2022/11/17 01:53:45;;;;;;;11.87;10.97;;;10.20;99.90;;;;;;5112042;27;20706;-68
2022/11/17 01:56:17;;;;;;;11.80;10.80;;;10.20;99.90;;;;;;5111729;27;20445;-69
2022/11/17 01:58:51;;;;;;;11.77;11.03;;;10.20;99.90;;;;;;5118239;27;20460;-69
2022/11/17 02:01:18;;;;;;;11.30;10.80;;;10.20;99.90;;;;;;5123474;27;20457;-69
2022/11/17 02:03:50;;;;;;;11.27;10.70;;;10.20;99.90;;;;;;5120533;27;20463;-69
2022/11/17 02:06:21;;;;;;;12.73;11.93;;;10.30;99.90;;;;;;5117784;27;20479;-69
2022/11/17 02:08:51;;;;;;;11.80;11.00;;;10.30;99.90;;;;;;5111696;27;20960;-70
2022/11/17 02:11:20;;;;;;;11.50;10.57;;;10.30;99.90;;;;;;5118039;27;20859;-68
2022/11/17 02:13:51;;;;;;;11.10;10.57;;;10.30;99.90;;;;;;5120737;27;20472;-68
2022/11/17 02:16:18;;;;;;;11.60;11.10;;;10.40;99.90;;;;;;5118074;27;20876;-68
2022/11/17 02:18:47;;;;;;;11.70;11.00;;;10.40;99.90;;;;;;5113321;27;20514;-69
2022/11/17 02:21:52;;;;;;;12.40;11.33;;;10.40;99.90;;;;;;5114056;27;20469;-69
2022/11/17 02:24:46;;;;;;;13.07;11.97;;;10.40;99.90;;;;;;5120387;27;20469;-67
2022/11/17 02:27:43;;;;;;;13.57;12.73;;;10.40;99.90;;;;;;5119060;27;20496;-68
2022/11/17 02:30:12;;;;;;;13.57;12.60;;;10.30;99.90;;;;;;5109563;27;20522;-68
2022/11/17 02:32:52;;;;;;;12.77;12.17;;;10.30;99.90;;;;;;5114511;27;20465;-68
2022/11/17 02:35:24;;;;;;;12.80;11.90;;;10.30;99.90;;;;;;5119034;27;20831;-68
2022/11/17 02:38:00;;;;;;;13.07;12.20;;;10.30;99.90;;;;;;5115719;27;20460;-68
2022/11/17 02:40:32;;;;;;;18.27;13.07;;;10.30;99.90;;;;;;5119566;27;20487;-68
2022/11/17 02:46:06;;;;;;;13.30;12.70;;;10.30;99.90;;;;;;5113281;27;20862;-68
2022/11/17 02:48:36;;;;;;;13.43;12.50;;;10.30;99.90;;;;;;5111666;27;20501;-68
2022/11/17 02:51:04;;;;;;;13.10;12.20;;;10.30;99.90;;;;;;5113481;27;20468;-68
2022/11/17 02:53:32;;;;;;;11.80;10.90;;;10.30;99.90;;;;;;5107870;27;20686;-67
2022/11/17 02:56:01;;;;;;;12.07;11.00;;;10.30;99.90;;;;;;5120343;27;20457;-68
2022/11/17 02:58:29;;;;;;;11.90;11.10;;;10.20;99.90;;;;;;5112554;27;20468;-68
2022/11/17 03:01:17;;;;;;;11.30;10.43;;;10.20;99.90;;;;;;5113063;27;20498;-69
2022/11/17 03:04:00;;;;;;;12.33;10.30;;;10.20;99.90;;;;;;5112968;27;21107;-68
2022/11/17 03:06:36;;;;;;;9.57;8.97;;;10.30;99.90;;;;;;5116927;27;20476;-70
2022/11/17 03:09:10;;;;;;;10.07;9.10;;;10.20;99.90;;;;;;5114725;27;20970;-68
2022/11/17 03:11:45;;;;;;;11.20;10.30;;;10.20;99.90;;;;;;5115244;27;20459;-68
2022/11/17 03:14:20;;;;;;;11.43;10.80;;;10.20;99.90;;;;;;5115804;27;20561;-69
2022/11/17 03:16:56;;;;;;;10.27;9.50;;;10.30;99.90;;;;;;5116138;27;20456;-70
2022/11/17 03:19:29;;;;;;;10.03;9.33;;;10.30;99.90;;;;;;5119956;27;20460;-70
2022/11/17 03:21:59;;;;;;;9.97;9.47;;;10.30;99.90;;;;;;5113648;27;20461;-70
2022/11/17 03:24:30;;;;;;;10.73;9.97;;;10.30;99.90;;;;;;5113367;27;20489;-70
2022/11/17 03:27:02;;;;;;;10.67;9.97;;;10.30;99.90;;;;;;5111637;27;20481;-69
2022/11/17 03:29:32;;;;;;;10.23;9.73;;;10.30;99.90;;;;;;5113071;27;20464;-70
2022/11/17 03:32:02;;;;;;;11.20;10.33;;;10.20;99.90;;;;;;5126363;27;20550;-69
2022/11/17 03:34:35;;;;;;;10.00;9.40;;;10.20;99.90;;;;;;5118747;28;20469;-69
2022/11/17 03:37:05;;;;;;;10.53;9.93;;;10.20;99.90;;;;;;5117460;28;20819;-68
2022/11/17 03:39:35;;;;;;;10.37;9.87;;;10.10;99.90;;;;;;5115386;28;20461;-69
2022/11/17 03:42:06;;;;;;;11.00;10.20;;;10.10;99.90;;;;;;5110791;28;20448;-69
2022/11/17 03:44:39;;;;;;;11.50;10.60;;;10.10;99.90;;;;;;5117047;28;20454;-69
2022/11/17 03:47:08;;;;;;;10.90;10.30;;;10.00;99.90;;;;;;5106352;28;20484;-70
2022/11/17 03:49:40;;;;;;;11.33;10.30;;;10.00;99.90;;;;;;5118619;28;20804;-69
2022/11/17 03:52:07;;;;;;;9.13;8.63;;;10.00;99.90;;;;;;5115264;28;20471;-68
2022/11/17 03:54:35;;;;;;;9.97;9.30;;;10.00;99.90;;;;;;5118843;28;20469;-68
2022/11/17 03:57:07;;;;;;;10.03;9.13;;;10.00;99.90;;;;;;5118835;28;20461;-69
2022/11/17 03:59:42;;;;;;;10.70;9.87;;;10.00;99.90;;;;;;5107070;28;20820;-69
2022/11/17 04:02:13;;;;;;;11.13;10.20;;;10.00;99.90;;;;;;5109846;27;20807;-69
2022/11/17 04:07:25;;;;;;;11.03;10.23;;;10.10;99.90;;;;;;5118960;28;20561;-70
2022/11/17 04:09:51;;;;;;;9.63;9.23;;;10.10;99.90;;;;;;5119463;28;20521;-70
2022/11/17 04:17:49;;;;;;;10.80;9.87;;;9.90;99.90;;;;;;5124774;28;20439;-68
2022/11/17 04:20:16;;;;;;;10.10;9.30;;;9.90;99.90;;;;;;5117417;28;21031;-69
2022/11/17 04:22:43;;;;;;;10.17;9.43;;;9.90;99.90;;;;;;5118488;27;20459;-70
2022/11/17 04:28:35;;;;;;;9.87;9.30;;;9.90;99.90;;;;;;5120564;28;20498;-69
2022/11/17 04:30:42;;;;;;;10.50;9.60;;;10.00;99.90;;;;;;5112385;27;20501;-69
2022/11/17 04:33:09;;;;;;;10.43;9.37;;;10.00;99.90;;;;;;5116273;27;21062;-69
2022/11/17 04:35:36;;;;;;;10.10;9.50;;;10.00;99.90;;;;;;5123096;27;20939;-68
2022/11/17 04:38:03;;;;;;;11.60;10.77;;;10.10;99.90;;;;;;5115965;27;20440;-69
2022/11/17 04:41:52;;;;;;;16.53;11.70;;;10.10;99.90;;;;;;5118184;27;20484;-68
2022/11/17 04:43:16;;;;;;;13.80;12.60;;;10.10;99.90;;;;;;5126053;27;20455;-68
2022/11/17 04:45:44;;;;;;;13.67;12.97;;;10.10;99.90;;;;;;5115244;27;20493;-69
2022/11/17 04:48:11;;;;;;;16.77;13.37;;;10.10;99.90;;;;;;5113155;27;20511;-68
2022/11/17 04:50:38;;;;;;;15.53;14.10;;;10.10;99.90;;;;;;5123170;27;20449;-69
2022/11/17 04:53:05;;;;;;;13.77;12.80;;;10.10;99.90;;;;;;5122600;27;20521;-69
2022/11/17 04:55:32;;;;;;;14.07;12.97;;;10.10;99.90;;;;;;5120805;27;20997;-69
2022/11/17 04:58:00;;;;;;;14.17;13.17;;;10.10;99.90;;;;;;5114436;27;20484;-69
2022/11/17 05:00:26;;;;;;;14.43;12.93;;;10.00;99.90;;;;;;5117589;27;20468;-69
2022/11/17 05:02:55;;;;;;;12.83;11.77;;;10.10;99.90;;;;;;5109751;27;20882;-69
2022/11/17 05:05:22;;;;;;;13.70;12.90;;;10.10;99.90;;;;;;5120509;27;20483;-68
2022/11/17 05:07:49;;;;;;;13.03;12.33;;;10.10;99.90;;;;;;5114251;27;20504;-69
2022/11/17 05:13:20;;;;;;;13.17;12.30;;;10.10;99.90;;;;;;5116067;27;20489;-72
2022/11/17 05:18:40;;;;;;;16.53;12.20;;;10.10;99.90;;;;;;5116917;27;20532;-70
2022/11/17 05:21:08;;;;;;;14.50;13.10;;;10.10;99.90;;;;;;5116673;27;22539;-69
2022/11/17 05:23:52;;;;;;;15.27;12.57;;;10.10;99.90;;;;;;5116950;27;20471;-70
2022/11/17 05:26:21;;;;;;;13.33;12.43;;;10.20;99.90;;;;;;5121179;27;20456;-70
2022/11/17 05:28:49;;;;;;;13.90;11.90;;;10.20;99.90;;;;;;5115202;27;20453;-70
2022/11/17 05:31:16;;;;;;;11.80;11.10;;;10.30;99.90;;;;;;5115552;27;20545;-70
2022/11/17 05:33:44;;;;;;;12.77;11.90;;;10.30;99.90;;;;;;5118901;27;20461;-69
2022/11/17 05:36:12;;;;;;;13.40;12.17;;;10.40;99.90;;;;;;5119679;27;20472;-70
2022/11/17 05:38:38;;;;;;;12.30;11.03;;;10.40;99.90;;;;;;5122382;27;20649;-70
2022/11/17 05:41:06;;;;;;;12.50;11.27;;;10.40;99.90;;;;;;5116971;27;20553;-69
2022/11/17 05:43:33;;;;;;;12.57;11.50;;;10.50;99.90;;;;;;5119496;27;20826;-69
2022/11/17 05:46:00;;;;;;;15.70;12.47;;;10.50;99.90;;;;;;5118058;27;20453;-70
2022/11/17 05:48:27;;;;;;;12.40;11.60;;;10.50;99.90;;;;;;5119305;27;20492;-70
2022/11/17 05:50:56;;;;;;;13.13;12.23;;;10.50;99.90;;;;;;5117343;27;20896;-70
2022/11/17 05:53:23;;;;;;;14.13;12.50;;;10.50;99.90;;;;;;5116171;27;20460;-70
2022/11/17 05:55:50;;;;;;;12.93;11.80;;;10.50;99.90;;;;;;5110656;27;20452;-70
2022/11/17 05:58:21;;;;;;;13.17;12.13;;;10.50;99.90;;;;;;5113849;27;20796;-71
2022/11/17 06:00:48;;;;;;;13.90;13.00;;;10.60;99.90;;;;;;5115311;27;20449;-69
2022/11/17 06:03:18;;;;;;;14.23;12.73;;;10.50;99.90;;;;;;5111147;27;20972;-69
2022/11/17 06:05:45;;;;;;;13.13;12.03;;;10.50;99.90;;;;;;5120499;27;20480;-69
2022/11/17 06:08:14;;;;;;;12.50;11.90;;;10.50;99.90;;;;;;5113126;27;20492;-69
2022/11/17 06:10:41;;;;;;;13.20;12.00;;;10.60;99.90;;;;;;5109067;27;20463;-69
2022/11/17 06:13:08;;;;;;;11.97;10.90;;;10.60;99.90;;;;;;5107939;27;20869;-69
2022/11/17 06:15:35;;;;;;;13.50;12.27;;;10.60;99.90;;;;;;5118487;27;20464;-69
2022/11/17 06:18:05;;;;;;;12.70;11.87;;;10.60;99.90;;;;;;5116924;27;20464;-70
2022/11/17 06:20:34;;;;;;;12.33;11.60;;;10.50;99.90;;;;;;5123799;27;20452;-69
2022/11/17 06:23:06;;;;;;;12.87;12.10;;;10.60;99.90;;;;;;5122668;27;20473;-69
2022/11/17 06:25:36;;;;;;;12.17;11.57;;;10.50;99.90;;;;;;5114933;27;20509;-69
2022/11/17 06:28:06;;;;;;;13.37;12.60;;;10.50;99.90;;;;;;5109696;27;20495;-69
2022/11/17 06:30:35;;;;;;;12.80;12.07;;;10.40;99.90;;;;;;5101982;27;21105;-68
2022/11/17 06:33:03;;;;;;;14.20;12.77;;;10.40;99.90;;;;;;5121200;27;20477;-68
2022/11/17 06:35:32;;;;;;;13.20;12.40;;;10.40;99.90;;;;;;5115163;27;20471;-68
2022/11/17 06:37:59;;;;;;;13.00;12.30;;;10.40;99.90;;;;;;5118389;27;20962;-68
2022/11/17 06:40:27;;;;;;;15.53;14.53;;;10.40;99.90;;;;;;5112800;27;20480;-70
2022/11/17 06:43:08;;;;;;;13.53;12.43;;;10.40;99.90;;;;;;5116316;27;20548;-70
2022/11/17 06:45:36;;;;;;;12.87;12.10;;;10.40;99.90;;;;;;5110049;27;20461;-70
2022/11/17 06:48:03;;;;;;;14.17;12.97;;;10.50;99.90;;;;;;5115930;27;20834;-69
2022/11/17 06:50:30;;;;;;;13.83;12.83;;;10.50;99.90;;;;;;5115022;27;20979;-69
2022/11/17 06:52:59;;;;;;;11.77;11.00;;;10.60;99.90;;;;;;5114647;27;20468;-70
2022/11/17 06:55:26;;;;;;;12.10;11.30;;;10.60;99.90;;;;;;5112646;27;20552;-68
2022/11/17 06:58:00;;;;;;;11.73;11.10;;;10.60;99.90;;;;;;5116401;27;20959;-68
2022/11/17 07:00:27;;;;;;;11.27;10.67;;;10.60;99.90;;;;;;5106320;27;20561;-68
2022/11/17 07:02:59;;;;;;;11.10;10.30;;;10.60;99.90;;;;;;5112565;27;20491;-69
2022/11/17 07:05:26;;;;;;;11.87;10.80;;;10.60;99.90;;;;;;5112656;27;20579;-68
2022/11/17 07:07:56;;;;;;;12.20;11.43;;;10.50;99.90;;;;;;5109251;27;21214;-68
2022/11/17 07:10:23;;;;;;;12.20;11.30;;;10.40;99.90;;;;;;5108196;27;20452;-68
2022/11/17 07:12:49;;;;;;;12.50;11.90;;;10.40;99.90;;;;;;5111673;27;20830;-68
2022/11/17 07:15:17;;;;;;;14.60;13.80;;;10.30;99.90;;;;;;5113116;27;21016;-68
2022/11/17 07:17:44;;;;;;;13.93;13.07;;;10.20;99.90;;;;;;5118089;27;20811;-68
2022/11/17 07:20:11;;;;;;;12.37;11.67;;;10.10;99.90;;;;;;5110603;27;20500;-69
2022/11/17 07:22:40;;;;;;;11.90;11.20;;;10.00;99.90;;;;;;5115604;27;20460;-70
2022/11/17 07:25:08;;;;;;;11.80;11.30;;;10.00;99.90;;;;;;5116538;27;20494;-69
2022/11/17 07:27:36;;;;;;;11.03;10.53;;;10.00;99.90;;;;;;5119178;27;20866;-68
2022/11/17 07:30:03;;;;;;;11.70;11.10;;;10.00;99.90;;;;;;5111844;27;20543;-70
2022/11/17 07:32:32;;;;;;;12.10;11.30;;;10.10;99.90;;;;;;5113441;27;20464;-68
2022/11/17 07:35:00;;;;;;;11.90;10.90;;;10.10;99.90;;;;;;5118091;28;20468;-69
2022/11/17 07:37:27;;;;;;;11.27;10.67;;;10.20;99.90;;;;;;5115466;28;20751;-70
2022/11/17 07:39:54;;;;;;;10.80;10.20;;;10.20;99.90;;;;;;5113846;28;20591;-68
2022/11/17 07:42:21;;;;;;;12.33;11.37;;;10.30;99.90;;;;;;5110568;28;20481;-67
2022/11/17 07:44:49;;;;;;;12.27;11.43;;;10.30;99.90;;;;;;5109622;28;21130;-69
2022/11/17 07:47:16;;;;;;;13.47;12.30;;;10.30;99.90;;;;;;5107429;28;21060;-69
2022/11/17 07:49:44;;;;;;;13.87;12.67;;;10.30;99.90;;;;;;5111312;28;20487;-67
2022/11/17 07:52:12;;;;;;;15.10;12.50;;;10.30;99.90;;;;;;5114446;28;20864;-67
2022/11/17 07:54:39;;;;;;;18.67;13.00;;;10.30;99.90;;;;;;5114577;28;20861;-69
2022/11/17 07:57:07;;;;;;;11.93;11.33;;;10.30;99.90;;;;;;5116585;28;20453;-68
2022/11/17 07:59:34;;;;;;;12.90;12.10;;;10.30;99.90;;;;;;5112943;28;20488;-68
2022/11/17 08:02:00;;;;;;;12.60;11.53;;;10.30;99.90;;;;;;5109923;27;20474;-70
2022/11/17 08:04:27;;;;;;;13.60;12.80;;;10.30;99.90;;;;;;5115978;27;20484;-71
2022/11/17 08:06:56;;;;;;;12.10;11.40;;;10.20;99.90;;;;;;5125351;27;20464;-71
2022/11/17 08:09:23;;;;;;;12.33;11.47;;;10.30;99.90;;;;;;5125438;27;21329;-72
2022/11/17 08:11:50;;;;;;;12.97;12.00;;;10.30;99.90;;;;;;5116813;27;20448;-72
2022/11/17 08:14:17;;;;;;;13.53;12.83;;;10.30;99.90;;;;;;5116355;27;20457;-71
2022/11/17 08:16:44;;;;;;;13.00;12.33;;;10.40;99.90;;;;;;5109113;27;20469;-72
2022/11/17 08:19:13;;;;;;;14.67;13.47;;;10.40;99.90;;;;;;5120785;27;20461;-71
2022/11/17 08:21:41;;;;;;;12.93;12.27;;;10.50;99.90;;;;;;5122391;27;20820;-71
2022/11/17 08:24:09;;;;;;;14.90;13.80;;;10.50;99.90;;;;;;5120613;27;20821;-71
2022/11/17 08:26:36;;;;;;;12.13;11.63;;;10.50;99.90;;;;;;5120385;27;20931;-68
2022/11/17 08:29:03;;;;;;;12.37;11.80;;;10.60;99.90;;;;;;5120632;27;20476;-69
2022/11/17 08:31:30;;;;;;;13.20;12.23;;;10.60;99.90;;;;;;5109349;27;20488;-69
2022/11/17 08:33:57;;;;;;;13.20;12.33;;;10.60;99.90;;;;;;5119573;27;20490;-69
2022/11/17 08:36:23;;;;;;;13.07;12.17;;;10.70;99.90;;;;;;5114889;27;20474;-69
2022/11/17 08:38:50;;;;;;;12.73;11.93;;;10.80;99.90;;;;;;5117279;27;20483;-69
2022/11/17 08:41:20;;;;;;;11.87;11.10;;;10.70;99.90;;;;;;5112975;27;20564;-69
2022/11/17 08:43:47;;;;;;;13.53;12.43;;;10.70;99.90;;;;;;5122290;27;20966;-69
2022/11/17 08:46:14;;;;;;;11.20;10.70;;;10.80;99.90;;;;;;5118005;27;20460;-68
2022/11/17 08:48:41;;;;;;;11.73;11.13;;;10.70;99.90;;;;;;5119172;27;20507;-69
2022/11/17 08:51:09;;;;;;;11.17;10.57;;;10.70;99.90;;;;;;5119599;27;20512;-69
2022/11/17 08:53:36;;;;;;;10.60;10.00;;;10.70;99.90;;;;;;5113185;27;20946;-69
2022/11/17 08:56:07;;;;;;;11.20;10.40;;;10.70;99.90;;;;;;5119690;27;20505;-68
2022/11/17 08:58:39;;;;;;;10.47;9.97;;;10.80;99.90;;;;;;5113736;27;21071;-68
2022/11/17 09:01:08;;;;;;;13.00;10.10;;;10.80;99.90;;;;;;5117834;27;20469;-67
2022/11/17 09:03:34;;;;;;;9.63;9.17;;;10.70;99.90;;;;;;5124533;27;20862;-68
2022/11/17 09:06:02;;;;;;;8.60;8.27;;;10.80;99.90;;;;;;5116589;27;20554;-68
2022/11/17 09:08:30;;;;;;;9.90;9.30;;;10.80;99.90;;;;;;5113220;27;20597;-69
2022/11/17 09:10:57;;;;;;;9.90;9.40;;;10.80;99.90;;;;;;5116138;27;20550;-68
2022/11/17 09:13:26;;;;;;;10.23;9.20;;;10.90;99.90;;;;;;5115995;27;20474;-68
2022/11/17 09:15:54;;;;;;;9.00;8.60;;;11.00;99.90;;;;;;5115801;27;20491;-69
2022/11/17 09:18:21;;;;;;;10.30;9.70;;;11.00;99.90;;;;;;5114649;27;20461;-68
2022/11/17 09:20:47;;;;;;;10.43;9.47;;;11.10;99.90;;;;;;5122202;27;20497;-70
2022/11/17 09:23:14;;;;;;;10.87;10.10;;;11.10;99.90;;;;;;5118228;27;20468;-68
2022/11/17 09:25:41;;;;;;;11.43;10.50;;;11.20;99.90;;;;;;5113751;27;20461;-70
2022/11/17 09:28:08;;;;;;;11.33;10.73;;;11.30;99.90;;;;;;5118276;27;20844;-70
2022/11/17 09:30:36;;;;;;;11.50;11.00;;;11.40;99.90;;;;;;4980387;27;20479;-68
2022/11/17 09:33:04;;;;;;;11.60;11.03;;;11.40;99.90;;;;;;5054864;28;20532;-69
2022/11/17 09:35:31;;;;;;;12.70;11.43;;;11.40;99.90;;;;;;5053238;28;20471;-68
2022/11/17 09:37:59;;;;;;;13.30;12.50;;;11.40;99.90;;;;;;5062195;28;20474;-68
2022/11/17 09:40:28;;;;;;;12.77;12.17;;;11.50;99.90;;;;;;5055841;28;20594;-68
2022/11/17 09:42:55;;;;;;;11.97;11.40;;;11.60;99.90;;;;;;5058533;28;20463;-68
2022/11/17 09:45:27;;;;;;;12.90;12.10;;;11.50;99.90;;;;;;5061088;28;20463;-68
2022/11/17 09:47:59;;;;;;;12.57;11.77;;;11.60;99.90;;;;;;5060510;28;20955;-70
2022/11/17 09:50:31;;;;;;;12.20;11.40;;;11.70;99.90;;;;;;5060174;28;20979;-68
2022/11/17 09:53:04;;;;;;;12.53;11.80;;;11.80;99.90;;;;;;5063409;28;20468;-70
2022/11/17 09:55:35;;;;;;;12.60;12.00;;;11.90;99.90;;;;;;5062332;28;20513;-70
2022/11/17 09:58:15;;;;;;;12.77;12.17;;;12.00;99.90;;;;;;5059035;28;20466;-69
2022/11/17 10:00:47;;;;;;;13.20;12.50;;;12.00;99.90;;;;;;5057054;28;20550;-70
2022/11/17 10:03:18;;;;;;;12.27;11.67;;;12.20;99.90;;;;;;5057144;28;20575;-68
2022/11/17 10:05:48;;;;;;;13.63;12.93;;;12.30;99.90;;;;;;5061570;28;20891;-68
2022/11/17 10:08:19;;;;;;;13.90;13.00;;;12.40;99.90;;;;;;5054267;28;20484;-68
2022/11/17 10:10:47;;;;;;;14.53;13.33;;;12.50;99.90;;;;;;5058818;28;20475;-69
2022/11/17 10:13:22;;;;;;;13.30;12.70;;;12.50;99.90;;;;;;5060693;28;20949;-69
2022/11/17 10:15:52;;;;;;;14.40;13.60;;;12.50;99.90;;;;;;5055534;28;20952;-69
2022/11/17 10:18:19;;;;;;;15.40;14.50;;;12.60;99.90;;;;;;5053130;28;20496;-70
2022/11/17 10:20:47;;;;;;;15.20;14.20;;;12.60;99.90;;;;;;5050684;28;20912;-69
2022/11/17 10:23:17;;;;;;;14.40;13.70;;;12.80;99.90;;;;;;5058330;28;20459;-68
2022/11/17 10:25:45;;;;;;;14.90;14.10;;;12.90;99.90;;;;;;5062435;28;20458;-69
2022/11/17 10:28:25;;;;;;;15.23;14.43;;;13.00;99.90;;;;;;5059587;28;20491;-69
2022/11/17 10:30:58;;;;;;;15.50;14.50;;;13.00;99.90;;;;;;5056708;28;20463;-69
2022/11/17 10:33:38;;;;;;;14.57;13.87;;;12.90;99.90;;;;;;5056648;28;20460;-73
2022/11/17 10:36:17;;;;;;;15.40;14.50;;;12.90;99.90;;;;;;5047703;28;20465;-71
2022/11/17 10:38:46;;;;;;;15.50;14.70;;;12.90;99.90;;;;;;5061168;28;20463;-71
2022/11/17 10:41:17;;;;;;;15.07;14.27;;;12.80;99.90;;;;;;5064211;28;20479;-70
2022/11/17 10:43:55;;;;;;;15.07;14.27;;;12.90;99.90;;;;;;5057600;28;20470;-70
2022/11/17 10:46:23;;;;;;;14.93;14.13;;;13.10;99.90;;;;;;5053815;28;20450;-71
2022/11/17 10:48:59;;;;;;;14.70;14.00;;;13.30;99.90;;;;;;5061407;28;20566;-73
2022/11/17 10:51:30;;;;;;;15.20;14.50;;;13.50;99.90;;;;;;5055899;28;20473;-72
2022/11/17 10:54:03;;;;;;;15.47;14.63;;;13.40;99.90;;;;;;5057956;28;20459;-72
2022/11/17 10:56:33;;;;;;;17.40;15.03;;;13.40;99.90;;;;;;5056954;28;20460;-70
2022/11/17 10:59:11;;;;;;;15.23;14.33;;;13.40;99.90;;;;;;5056331;28;20505;-68
2022/11/17 11:01:40;;;;;;;15.40;14.60;;;13.60;99.90;;;;;;5056990;28;20520;-69
2022/11/17 11:04:27;;;;;;;15.50;14.70;;;13.80;99.90;;;;;;5058523;28;20494;-69
2022/11/17 11:07:07;;;;;;;16.13;15.10;;;13.70;99.90;;;;;;5061921;28;20467;-69
2022/11/17 11:09:39;;;;;;;15.90;15.00;;;13.60;99.90;;;;;;5057636;28;20492;-69
2022/11/17 11:12:13;;;;;;;15.70;14.90;;;13.60;99.90;;;;;;5060982;28;20463;-70
2022/11/17 11:14:43;;;;;;;15.47;14.67;;;13.40;99.90;;;;;;5057911;28;20550;-69
2022/11/17 11:17:12;;;;;;;15.30;14.60;;;13.40;99.90;;;;;;5050803;28;20468;-69
2022/11/17 11:19:42;;;;;;;15.50;14.70;;;13.50;99.90;;;;;;5058970;28;20468;-68
2022/11/17 11:22:31;;;;;;;15.90;15.10;;;13.50;99.90;;;;;;5056316;28;20466;-69
2022/11/17 11:25:10;;;;;;;15.40;14.60;;;13.60;99.90;;;;;;5055942;28;20462;-67
2022/11/17 11:28:02;;;;;;;15.70;14.73;;;13.60;99.90;;;;;;5062134;28;20533;-68
2022/11/17 11:30:35;;;;;;;15.73;14.87;;;13.70;99.90;;;;;;5050925;28;20460;-68
2022/11/17 11:33:20;;;;;;;15.47;14.57;;;13.70;99.90;;;;;;5049114;28;20970;-69
2022/11/17 11:36:01;;;;;;;16.17;15.10;;;13.70;99.90;;;;;;5050150;28;20518;-69
2022/11/17 11:38:43;;;;;;;17.97;16.43;;;13.60;99.90;;;;;;5053420;28;20468;-69
2022/11/17 11:41:20;;;;;;;15.90;15.00;;;13.50;99.90;;;;;;5049195;28;20480;-68
2022/11/17 11:43:57;;;;;;;16.60;15.40;;;13.30;99.90;;;;;;5054710;28;20866;-67
2022/11/17 11:46:34;;;;;;;15.47;14.67;;;13.20;99.90;;;;;;5056846;28;20487;-68
2022/11/17 11:49:16;;;;;;;15.60;14.70;;;13.20;99.90;;;;;;5042750;28;20507;-69
2022/11/17 11:51:44;;;;;;;15.30;14.50;;;13.20;99.90;;;;;;5051075;28;20463;-69
2022/11/17 11:54:16;;;;;;;15.97;14.90;;;13.20;99.90;;;;;;5054341;28;20473;-70
2022/11/17 11:56:45;;;;;;;16.00;15.10;;;13.20;99.90;;;;;;5053598;28;20547;-68
2022/11/17 11:59:17;;;;;;;16.00;15.10;;;13.20;99.90;;;;;;5058098;28;20470;-68
2022/11/17 12:01:50;;;;;;;16.23;15.20;;;13.10;99.90;;;;;;5049785;28;20514;-69
2022/11/17 12:04:28;;;;;;;15.93;15.13;;;13.10;99.90;;;;;;5051013;28;20676;-69
2022/11/17 12:07:05;;;;;;;16.03;15.13;;;13.10;99.90;;;;;;5047845;28;20471;-68
2022/11/17 12:09:49;;;;;;;16.27;15.37;;;13.10;99.90;;;;;;5045498;28;20522;-69
2022/11/17 12:12:20;;;;;;;16.27;15.47;;;13.10;99.90;;;;;;5060045;28;20459;-70
2022/11/17 12:15:09;;;;;;;16.30;15.40;;;13.10;99.90;;;;;;5050152;28;21255;-70
2022/11/17 12:17:37;;;;;;;16.20;15.20;;;13.10;99.90;;;;;;5056856;28;20463;-68
2022/11/17 12:20:26;;;;;;;16.07;15.17;;;13.10;99.90;;;;;;5052325;28;20781;-70
2022/11/17 12:23:06;;;;;;;17.67;15.97;;;13.20;99.90;;;;;;5051181;28;20463;-68
2022/11/17 12:25:36;;;;;;;16.43;15.50;;;13.10;99.90;;;;;;5053189;28;20490;-68
2022/11/17 12:28:28;;;;;;;15.97;15.07;;;13.10;99.90;;;;;;5049811;28;20475;-68
2022/11/17 12:30:57;;;;;;;16.87;15.77;;;13.10;99.90;;;;;;5051128;28;20557;-69
2022/11/17 12:33:44;;;;;;;16.20;15.30;;;13.10;99.90;;;;;;5057654;28;20470;-70
2022/11/17 12:36:28;;;;;;;15.70;14.80;;;13.20;99.90;;;;;;5055941;28;20466;-69
2022/11/17 12:38:57;;;;;;;17.00;15.90;;;13.30;99.90;;;;;;5056708;28;21035;-69
2022/11/17 12:42:01;;;;;;;16.50;15.50;;;13.40;99.90;;;;;;5049673;28;20518;-70
2022/11/17 12:45:03;;;;;;;16.23;15.33;;;13.40;99.90;;;;;;5050571;28;20459;-70
2022/11/17 12:47:32;;;;;;;17.90;16.50;;;13.50;99.90;;;;;;5045381;28;20474;-70
2022/11/17 12:50:32;;;;;;;15.80;14.73;;;13.50;99.90;;;;;;5062176;28;20487;-69
2022/11/17 12:53:28;;;;;;;16.43;15.40;;;13.40;99.90;;;;;;5062121;28;20490;-70
2022/11/17 12:56:11;;;;;;;16.33;15.13;;;13.30;99.90;;;;;;5062222;28;20505;-69
2022/11/17 12:58:48;;;;;;;15.60;14.70;;;13.30;99.90;;;;;;5062790;28;20953;-70
2022/11/17 13:01:23;;;;;;;15.10;14.40;;;13.40;99.90;;;;;;5059730;28;20483;-70
2022/11/17 13:03:57;;;;;;;15.00;14.30;;;13.40;99.90;;;;;;5059720;28;20860;-68
2022/11/17 13:06:24;;;;;;;15.77;14.97;;;13.30;99.90;;;;;;5056667;28;20508;-68
2022/11/17 13:08:58;;;;;;;15.63;14.50;;;13.20;99.90;;;;;;5058851;28;20484;-69
2022/11/17 13:11:27;;;;;;;16.43;15.23;;;13.30;99.90;;;;;;5057528;28;20957;-69
2022/11/17 13:14:08;;;;;;;16.17;15.17;;;13.30;99.90;;;;;;5053573;28;20480;-70
2022/11/17 13:16:36;;;;;;;15.73;14.80;;;13.40;99.90;;;;;;5057855;28;20497;-69